Frances E. Haden — WX9254 — position and weather

sailwx.info

Track history (hours):
 
Tides and Currents Weather Stations Pressure Air Temp Water Temp Dewpoint Dewpoint Depression Visibility Wind Speed Wind Dir Waves Ship Positions

Frances E. Haden

Owner: G & H Towing Company, GALVESTON, TX. More information available from US FCC via Universal Licensing System and Coast Guard Vessel Documentation Center.

Last reported at 2018-Jan-20 01:19 UTC. Time now 2018-Jan-23 00:16 UTC.
Position N 29°44' W 095°09'.

Length 28 m; draft 4.5 m.

Type: Tug. MMSI: 366919940.

Date/timePositionNaut miles runAvg speedWind from/ knotsBaromVisibWave heightAir tempDewpointWater temp
2018-Jan-20 01:19N 29°44' W 095°09'  
2018-Jan-12 15:00N 29°41' W 095°00'2 3.5
2018-Jan-12 14:28N 29°40' W 094°59'3 6.9
2018-Jan-12 14:00N 29°37' W 094°58'2 4.2
2018-Jan-12 13:28N 29°37' W 095°01'0 0.0
2018-Jan-12 12:58N 29°37' W 095°01'0 0.0
2018-Jan-12 12:28N 29°37' W 095°01'0 0.0
2018-Jan-12 11:58N 29°37' W 095°01'0 0.0
2018-Jan-12 11:28N 29°37' W 095°01'0 0.0
2018-Jan-12 10:58N 29°37' W 095°01'0 0.0
2018-Jan-12 10:28N 29°37' W 095°01'0 0.0
2018-Jan-12 09:58N 29°37' W 095°01'0 0.0
2018-Jan-12 09:28N 29°37' W 095°01'0 0.0
2018-Jan-12 08:58N 29°37' W 095°01'0 0.0
2018-Jan-12 08:28N 29°37' W 095°01'0 0.0
2018-Jan-12 07:58N 29°37' W 095°01'0 0.0
2018-Jan-12 07:28N 29°37' W 095°01'0 0.0
2018-Jan-12 06:58N 29°37' W 095°01'0 0.0
2018-Jan-12 06:28N 29°37' W 095°01'0 0.0
2018-Jan-12 05:55N 29°37' W 095°01'0 0.0
2018-Jan-12 05:28N 29°37' W 095°01'0 0.0
2018-Jan-12 04:58N 29°37' W 095°01'0 0.0
2018-Jan-12 04:28N 29°37' W 095°01'0 0.0
2018-Jan-12 03:58N 29°37' W 095°01'0 0.0
2018-Jan-12 03:28N 29°37' W 095°01'0 0.0
2018-Jan-12 02:58N 29°37' W 095°01'0 0.0
2018-Jan-12 02:28N 29°37' W 095°01'0 0.0
2018-Jan-12 01:58N 29°37' W 095°01'0 0.0
2018-Jan-12 01:28N 29°37' W 095°01'0 0.0
2018-Jan-12 00:58N 29°37' W 095°01'0 0.0
2018-Jan-12 00:30N 29°37' W 095°01'0 0.0
2018-Jan-11 23:59N 29°37' W 095°01'0 0.0
2018-Jan-11 23:28N 29°37' W 095°01'0 0.0
2018-Jan-11 23:00N 29°37' W 095°01'1 1.7
2018-Jan-11 22:30N 29°37' W 095°02'0 0.8
2018-Jan-11 21:58N 29°37' W 095°01'0 0.0
2018-Jan-11 21:28N 29°37' W 095°01'0 0.0
2018-Jan-11 20:58N 29°37' W 095°01'0 0.0
2018-Jan-11 20:28N 29°37' W 095°01'0 0.0
2018-Jan-11 19:58N 29°37' W 095°01'0 0.0
2018-Jan-11 19:28N 29°37' W 095°01'0 0.0
2018-Jan-11 18:58N 29°37' W 095°01'0 0.0
2018-Jan-11 18:28N 29°37' W 095°01'0 0.0
2018-Jan-11 17:58N 29°37' W 095°01'0 0.0
2018-Jan-11 17:28N 29°37' W 095°01'0 0.0
2018-Jan-11 16:58N 29°37' W 095°01'0 0.0
2018-Jan-11 16:28N 29°37' W 095°01'0 0.0
2018-Jan-11 15:58N 29°37' W 095°01'0 0.0
2018-Jan-11 15:28N 29°37' W 095°01'0 0.0
2018-Jan-11 14:58N 29°37' W 095°01'0 0.0
2018-Jan-11 14:28N 29°37' W 095°01'0 0.9
2018-Jan-11 14:01N 29°37' W 095°01'0 0.0
2018-Jan-11 13:30N 29°37' W 095°01'1 2.3
2018-Jan-11 13:00N 29°37' W 095°00'3 6.0
2018-Jan-11 12:30N 29°39' W 094°58'4 7.8
2018-Jan-11 11:58N 29°43' W 095°01'  
Track history (hours):
 
Tides and Currents Weather Stations Pressure Air Temp Water Temp Dewpoint Dewpoint Depression Visibility Wind Speed Wind Dir Waves Ship Positions

Frances E. Haden

Owner: G & H Towing Company, GALVESTON, TX. More information available from US FCC via Universal Licensing System and Coast Guard Vessel Documentation Center.

Last reported at 2018-Jan-20 01:19 UTC. Time now 2018-Jan-23 00:16 UTC.
Position N 29°44' W 095°09'.

Length 28 m; draft 4.5 m.

Type: Tug. MMSI: 366919940.

Date/timePositionNaut miles runAvg speedWind from/ knotsBaromVisibWave heightAir tempDewpointWater temp
2018-Jan-20 01:19N 29°44' W 095°09'  
2018-Jan-12 15:00N 29°41' W 095°00'2 3.5
2018-Jan-12 14:28N 29°40' W 094°59'3 6.9
2018-Jan-12 14:00N 29°37' W 094°58'2 4.2
2018-Jan-12 13:28N 29°37' W 095°01'0 0.0
2018-Jan-12 12:58N 29°37' W 095°01'0 0.0
2018-Jan-12 12:28N 29°37' W 095°01'0 0.0
2018-Jan-12 11:58N 29°37' W 095°01'0 0.0
2018-Jan-12 11:28N 29°37' W 095°01'0 0.0
2018-Jan-12 10:58N 29°37' W 095°01'0 0.0
2018-Jan-12 10:28N 29°37' W 095°01'0 0.0
2018-Jan-12 09:58N 29°37' W 095°01'0 0.0
2018-Jan-12 09:28N 29°37' W 095°01'0 0.0
2018-Jan-12 08:58N 29°37' W 095°01'0 0.0
2018-Jan-12 08:28N 29°37' W 095°01'0 0.0
2018-Jan-12 07:58N 29°37' W 095°01'0 0.0
2018-Jan-12 07:28N 29°37' W 095°01'0 0.0
2018-Jan-12 06:58N 29°37' W 095°01'0 0.0
2018-Jan-12 06:28N 29°37' W 095°01'0 0.0
2018-Jan-12 05:55N 29°37' W 095°01'0 0.0
2018-Jan-12 05:28N 29°37' W 095°01'0 0.0
2018-Jan-12 04:58N 29°37' W 095°01'0 0.0
2018-Jan-12 04:28N 29°37' W 095°01'0 0.0
2018-Jan-12 03:58N 29°37' W 095°01'0 0.0
2018-Jan-12 03:28N 29°37' W 095°01'0 0.0
2018-Jan-12 02:58N 29°37' W 095°01'0 0.0
2018-Jan-12 02:28N 29°37' W 095°01'0 0.0
2018-Jan-12 01:58N 29°37' W 095°01'0 0.0
2018-Jan-12 01:28N 29°37' W 095°01'0 0.0
2018-Jan-12 00:58N 29°37' W 095°01'0 0.0
2018-Jan-12 00:30N 29°37' W 095°01'0 0.0
2018-Jan-11 23:59N 29°37' W 095°01'0 0.0
2018-Jan-11 23:28N 29°37' W 095°01'0 0.0
2018-Jan-11 23:00N 29°37' W 095°01'1 1.7
2018-Jan-11 22:30N 29°37' W 095°02'0 0.8
2018-Jan-11 21:58N 29°37' W 095°01'0 0.0
2018-Jan-11 21:28N 29°37' W 095°01'0 0.0
2018-Jan-11 20:58N 29°37' W 095°01'0 0.0
2018-Jan-11 20:28N 29°37' W 095°01'0 0.0
2018-Jan-11 19:58N 29°37' W 095°01'0 0.0
2018-Jan-11 19:28N 29°37' W 095°01'0 0.0
2018-Jan-11 18:58N 29°37' W 095°01'0 0.0
2018-Jan-11 18:28N 29°37' W 095°01'0 0.0
2018-Jan-11 17:58N 29°37' W 095°01'0 0.0
2018-Jan-11 17:28N 29°37' W 095°01'0 0.0
2018-Jan-11 16:58N 29°37' W 095°01'0 0.0
2018-Jan-11 16:28N 29°37' W 095°01'0 0.0
2018-Jan-11 15:58N 29°37' W 095°01'0 0.0
2018-Jan-11 15:28N 29°37' W 095°01'0 0.0
2018-Jan-11 14:58N 29°37' W 095°01'0 0.0
2018-Jan-11 14:28N 29°37' W 095°01'0 0.9
2018-Jan-11 14:01N 29°37' W 095°01'0 0.0
2018-Jan-11 13:30N 29°37' W 095°01'1 2.3
2018-Jan-11 13:00N 29°37' W 095°00'3 6.0
2018-Jan-11 12:30N 29°39' W 094°58'4 7.8
2018-Jan-11 11:58N 29°43' W 095°01'  

Dump ship's entire track history